Aérodrome :
LOGIN :

S'inscrire | Disclaimer

   EN    FR    IT 

 










Légende :    VFR   VFR Marginal   IFR   IFR Intensif   IFR Très Intensif
Visi : 
Plafond : 
>= 8 km
>= 3000ft
5 à 8 km
1000 à 3000 ft
1500m à 5 km
500 à 1000 ft
800 à 1500m
200 à 500 ft
< 800m
< 200 ft
Symboles :   Orages  Brouillard  Fortes neiges  Fortes précipitations  Vent > 20 kt
SIGMETs :   Divers  Orages  Givrage  Turbulence  Onde Orograph.  Cendres Volcan.






- Altitude de l'aérodrome : 141 ft
- Code IATA : SKS


EKSP - Srydstrup Vojens

DERNIER METAR :
  • 211550Z 23020KT 9999 -RA SCT015 BKN025 06/04 Q1013

METARs EXPIRÉS :
  • 211524Z 22019G30KT 9999 SCT019 BKN060 06/04 Q1013
  • 211450Z 23016KT 9999 FEW010 SCT018 BKN050 06/04 Q1014
  • 211420Z 24021G31KT 9000 -RA FEW010 SCT016 BKN022 06/04 Q1014
  • 211350Z 24020G32KT 9000 -RA FEW014 SCT017 BKN022 06/04 Q1014
  • 211320Z 24021KT 9999 SCT017 BKN022 07/04 Q1014

TAF TAF EKSP
Valide du 21 à 15h jusqu'au 22 à 15h UTC


211417Z 2115/2215 24022G35KT 9999 BKN018
BECMG 2115/2117 6000 -RADZ BKN012
TEMPO 2117/2209 4000 RADZ BR BKN006
BECMG 2200/2203 23028G40KT
BECMG 2205/2207 24028G45KT
BECMG 2209/2212 9999 SCT020
TEMPO 2212/2215 26028G45KT 7000 SHRA SCT020CB



MET'MAP, la Météo Aéronautique d'un coup d'oeil ! - Copyright ORBIFLY Décembre 2007 - Disclaimer

ORBIFLY MET'MAP TEAM :

Programmation & Développement : Alexandra Zaïnal
Sur une idée originale de : Baudouin d'Aumeries
Assistance à la programmation : Marc-Olivier Méhu
Soutien technique & logistique : Manuel Goepfert

Contact : metmap@orbifly.com




SOURCES & CREDITS :

   NOAA